Time;durP1;ratioP1;P1;durP2;ratioP2;P2;SDS_P1;SDS_P2;PMS_P1;PMS_P2;Temp;Humidity;BMP_temperature;BMP_pressure;BME280_temperature;BME280_humidity;BME280_pressure;Samples;Min_cycle;Max_cycle;Signal;HPM_P1;HPM_P2
2023/03/17 00:01:04;;;;;;;3.67;1.80;;;;;;;3.93;100.00;100206.16;6282990;28;20140;-85
2023/03/17 00:04:09;;;;;;;4.03;1.77;;;;;;;3.87;100.00;100198.81;6280294;28;20068;-85
2023/03/17 00:07:15;;;;;;;2.28;1.63;;;;;;;3.95;100.00;100190.69;6277493;28;20125;-85
2023/03/17 00:10:24;;;;;;;3.53;1.80;;;;;;;3.83;100.00;100193.06;6291346;28;20045;-85
2023/03/17 00:13:27;;;;;;;3.22;1.58;;;;;;;3.79;100.00;100189.00;6288468;28;20097;-85
2023/03/17 00:16:33;;;;;;;3.17;2.00;;;;;;;3.87;100.00;100196.25;6288764;28;20087;-85
2023/03/17 00:19:35;;;;;;;3.42;2.03;;;;;;;3.72;100.00;100210.72;6284897;28;20040;-85
2023/03/17 00:22:38;;;;;;;3.33;2.00;;;;;;;3.56;100.00;100209.94;6283164;28;20040;-85
2023/03/17 00:25:42;;;;;;;3.33;1.95;;;;;;;3.49;100.00;100208.63;6279621;28;20405;-85
2023/03/17 00:28:44;;;;;;;2.90;1.75;;;;;;;3.34;100.00;100210.28;6282983;28;20067;-85
2023/03/17 00:31:45;;;;;;;3.03;1.88;;;;;;;3.34;100.00;100208.53;6278255;28;20033;-85
2023/03/17 00:34:47;;;;;;;3.67;1.80;;;;;;;3.30;100.00;100209.59;6282709;28;20409;-85
2023/03/17 00:37:52;;;;;;;3.78;2.30;;;;;;;3.28;100.00;100200.38;6283612;28;20059;-85
2023/03/17 00:40:54;;;;;;;4.85;2.10;;;;;;;3.33;100.00;100193.28;6279760;28;20060;-85
2023/03/17 00:43:56;;;;;;;3.88;1.85;;;;;;;3.38;100.00;100192.13;6285111;28;20078;-85
2023/03/17 00:46:58;;;;;;;4.40;2.50;;;;;;;3.53;100.00;100184.50;6284523;28;20041;-85
2023/03/17 00:50:03;;;;;;;3.80;1.88;;;;;;;3.56;100.00;100177.50;6271437;28;20482;-85
2023/03/17 00:53:09;;;;;;;3.15;1.98;;;;;;;3.61;100.00;100172.94;6281230;28;20502;-85
2023/03/17 00:56:14;;;;;;;2.72;2.00;;;;;;;3.64;100.00;100165.09;6289102;28;20115;-85
2023/03/17 00:59:27;;;;;;;4.45;2.33;;;;;;;3.65;100.00;100171.88;6283416;28;20055;-85
2023/03/17 01:02:29;;;;;;;4.35;2.20;;;;;;;3.73;100.00;100168.06;6287280;28;20107;-85
2023/03/17 01:05:33;;;;;;;5.15;2.38;;;;;;;3.89;100.00;100164.53;6289791;28;20505;-85
2023/03/17 01:08:35;;;;;;;4.30;2.40;;;;;;;3.96;100.00;100167.56;6267617;28;20052;-85
2023/03/17 01:11:38;;;;;;;3.15;2.28;;;;;;;3.93;100.00;100161.81;6291957;28;20070;-85
2023/03/17 01:14:42;;;;;;;3.10;2.10;;;;;;;4.08;100.00;100166.88;6287192;28;20056;-85
2023/03/17 01:17:46;;;;;;;3.80;2.13;;;;;;;4.03;100.00;100174.00;6279789;28;20045;-85
2023/03/17 01:20:50;;;;;;;4.53;2.28;;;;;;;4.06;100.00;100170.44;6287324;28;20194;-85
2023/03/17 01:23:52;;;;;;;3.58;2.28;;;;;;;4.05;100.00;100172.16;6281105;28;20048;-85
2023/03/17 01:26:54;;;;;;;4.10;2.58;;;;;;;4.15;100.00;100172.47;6284055;28;20430;-85
2023/03/17 01:29:55;;;;;;;2.83;2.05;;;;;;;4.35;100.00;100179.00;6303281;28;20039;-85
2023/03/17 01:32:58;;;;;;;3.25;2.25;;;;;;;4.35;100.00;100189.25;6305210;28;20049;-85
2023/03/17 01:35:59;;;;;;;4.53;2.53;;;;;;;4.33;100.00;100180.81;6286720;28;20115;-85
2023/03/17 01:39:04;;;;;;;4.80;2.33;;;;;;;4.26;100.00;100174.41;6286479;28;20477;-85
2023/03/17 01:42:06;;;;;;;2.97;2.30;;;;;;;4.13;100.00;100170.91;6285778;28;20044;-85
2023/03/17 01:45:47;;;;;;;3.42;2.22;;;;;;;4.07;100.00;100167.78;6283987;28;20055;-85
2023/03/17 01:49:13;;;;;;;5.13;2.22;;;;;;;3.99;100.00;100146.91;6291614;28;20135;-85
2023/03/17 01:52:18;;;;;;;3.38;2.40;;;;;;;3.99;100.00;100148.66;6285377;28;20053;-85
2023/03/17 01:55:20;;;;;;;4.47;2.63;;;;;;;3.93;100.00;100154.94;6279622;28;20582;-85
2023/03/17 01:58:24;;;;;;;4.70;2.25;;;;;;;4.00;100.00;100130.63;6292487;28;20628;-85
2023/03/17 02:01:32;;;;;;;5.60;2.63;;;;;;;4.02;100.00;100125.41;6283328;28;20036;-85
2023/03/17 02:04:34;;;;;;;4.57;2.15;;;;;;;4.03;100.00;100132.19;6291699;28;20040;-85
2023/03/17 02:07:37;;;;;;;4.57;2.25;;;;;;;3.95;100.00;100117.28;6289772;28;20033;-85
2023/03/17 02:10:40;;;;;;;3.35;2.60;;;;;;;3.91;100.00;100122.66;6294921;28;20533;-85
2023/03/17 02:13:43;;;;;;;4.05;2.35;;;;;;;3.96;100.00;100121.47;6268831;28;20081;-85
2023/03/17 02:16:48;;;;;;;4.82;2.83;;;;;;;3.94;100.00;100132.72;6296705;28;20056;-85
2023/03/17 02:19:50;;;;;;;4.22;2.40;;;;;;;4.00;100.00;100137.47;6292182;28;20742;-85
2023/03/17 02:22:53;;;;;;;4.35;2.40;;;;;;;3.97;100.00;100137.66;6273288;28;20041;-85
2023/03/17 02:25:55;;;;;;;4.72;2.50;;;;;;;3.84;100.00;100147.78;6287608;28;20075;-85
2023/03/17 02:28:57;;;;;;;3.60;2.28;;;;;;;3.75;100.00;100153.41;6283175;28;20494;-85
2023/03/17 02:31:59;;;;;;;4.75;2.83;;;;;;;3.68;100.00;100158.09;6284863;28;20036;-85
2023/03/17 02:35:01;;;;;;;3.60;2.20;;;;;;;3.59;100.00;100156.84;6284491;28;20037;-85
2023/03/17 02:38:03;;;;;;;3.17;2.50;;;;;;;3.49;100.00;100153.16;6285006;28;20087;-85
2023/03/17 02:41:06;;;;;;;2.90;2.03;;;;;;;3.38;100.00;100151.19;6286481;28;20363;-85
2023/03/17 02:44:08;;;;;;;4.20;2.47;;;;;;;3.28;100.00;100154.31;6281988;28;20052;-85
2023/03/17 02:47:10;;;;;;;4.70;2.55;;;;;;;3.28;100.00;100159.44;6273642;28;20048;-85
2023/03/17 02:50:21;;;;;;;4.72;2.67;;;;;;;3.34;100.00;100154.81;6284219;28;20359;-85
2023/03/17 02:53:23;;;;;;;3.22;2.42;;;;;;;3.41;100.00;100157.88;6266532;28;20486;-85
2023/03/17 02:56:25;;;;;;;3.22;2.40;;;;;;;3.53;100.00;100144.41;6282876;28;20506;-85
2023/03/17 02:59:27;;;;;;;5.15;2.58;;;;;;;3.78;100.00;100146.41;6283124;28;20052;-85
2023/03/17 03:02:29;;;;;;;6.22;2.75;;;;;;;3.73;100.00;100137.34;6281505;28;20059;-85
2023/03/17 03:05:30;;;;;;;5.22;2.95;;;;;;;3.74;100.00;100133.88;6282316;28;20068;-85
2023/03/17 03:08:32;;;;;;;3.13;2.42;;;;;;;3.82;100.00;100134.25;6294055;28;20080;-85
2023/03/17 03:11:34;;;;;;;6.13;3.03;;;;;;;3.84;100.00;100138.38;6293575;28;20060;-85
2023/03/17 03:14:36;;;;;;;4.95;2.97;;;;;;;3.87;100.00;100142.47;6282729;28;20144;-85
2023/03/17 03:17:38;;;;;;;3.92;2.60;;;;;;;3.94;100.00;100132.72;6282552;28;20136;-85
2023/03/17 03:20:43;;;;;;;5.30;2.83;;;;;;;3.88;100.00;100137.28;6291233;28;20123;-85
2023/03/17 03:23:46;;;;;;;3.75;2.65;;;;;;;3.86;100.00;100146.78;6297267;28;20040;-85
2023/03/17 03:26:47;;;;;;;6.07;3.15;;;;;;;3.78;100.00;100154.09;6297540;28;20083;-85
2023/03/17 03:29:50;;;;;;;6.05;2.90;;;;;;;3.71;100.00;100154.53;6295716;28;20669;-85
2023/03/17 03:32:51;;;;;;;4.55;2.92;;;;;;;3.66;100.00;100155.59;6278327;28;20040;-85
2023/03/17 03:35:54;;;;;;;4.13;2.80;;;;;;;3.71;100.00;100152.78;6284236;28;20131;-85
2023/03/17 03:38:56;;;;;;;4.15;2.53;;;;;;;3.77;100.00;100156.72;6293533;28;20528;-85
2023/03/17 03:41:58;;;;;;;5.20;2.25;;;;;;;3.87;100.00;100148.41;6282985;28;20041;-85
2023/03/17 03:45:01;;;;;;;5.88;2.47;;;;;;;3.94;100.00;100142.97;6281585;28;20041;-85
2023/03/17 03:48:03;;;;;;;3.08;2.78;;;;;;;4.12;100.00;100136.75;6280775;28;20057;-85
2023/03/17 03:51:05;;;;;;;3.47;2.50;;;;;;;3.97;100.00;100125.69;6286387;28;20044;-85
2023/03/17 03:54:08;;;;;;;5.68;2.83;;;;;;;3.78;100.00;100110.56;6286029;28;20380;-85
2023/03/17 03:57:10;;;;;;;3.65;2.47;;;;;;;3.72;100.00;100105.78;6283922;28;20051;-85
2023/03/17 04:00:16;;;;;;;4.50;2.75;;;;;;;3.54;100.00;100083.81;6280832;28;20044;-85
2023/03/17 04:03:18;;;;;;;5.65;3.10;;;;;;;3.34;100.00;100079.81;6282606;28;20402;-85
2023/03/17 04:06:20;;;;;;;4.03;2.63;;;;;;;3.24;100.00;100072.66;6295480;28;20039;-85
2023/03/17 04:09:22;;;;;;;6.55;2.78;;;;;;;3.23;100.00;100085.56;6296117;28;20473;-85
2023/03/17 04:12:23;;;;;;;5.35;2.47;;;;;;;3.24;100.00;100082.88;6283503;28;20339;-85
2023/03/17 04:15:26;;;;;;;5.32;2.60;;;;;;;3.22;100.00;100084.69;6293314;28;20079;-85
2023/03/17 04:18:27;;;;;;;4.20;2.70;;;;;;;3.23;100.00;100077.88;6292866;28;20565;-85
2023/03/17 04:21:29;;;;;;;3.35;2.40;;;;;;;3.10;100.00;100074.31;6283610;28;20051;-85
2023/03/17 04:24:31;;;;;;;5.97;3.25;;;;;;;2.94;100.00;100089.69;6284177;28;20051;-85
2023/03/17 04:27:33;;;;;;;4.15;2.72;;;;;;;3.07;100.00;100065.09;6292020;28;20040;-85
2023/03/17 04:30:35;;;;;;;5.47;3.03;;;;;;;3.06;100.00;100067.75;6303433;28;20050;-85
2023/03/17 04:33:37;;;;;;;5.35;2.65;;;;;;;3.08;100.00;100066.75;6285447;28;20413;-85
2023/03/17 04:36:39;;;;;;;4.97;2.70;;;;;;;3.06;100.00;100065.19;6275244;28;20041;-85
2023/03/17 04:39:42;;;;;;;7.28;3.00;;;;;;;3.21;100.00;100064.34;6276955;28;20053;-85
2023/03/17 04:42:44;;;;;;;5.22;3.38;;;;;;;3.31;100.00;100078.25;6278326;28;20044;-85
2023/03/17 04:45:46;;;;;;;4.60;2.70;;;;;;;3.46;100.00;100079.13;6298657;28;20047;-85
2023/03/17 04:48:47;;;;;;;4.22;2.90;;;;;;;3.50;100.00;100072.09;6295913;28;20576;-85
2023/03/17 04:51:49;;;;;;;4.35;3.03;;;;;;;3.44;100.00;100088.63;6276647;28;20625;-85
2023/03/17 04:54:51;;;;;;;3.65;2.58;;;;;;;3.27;100.00;100081.88;6306722;28;20070;-85
2023/03/17 04:57:53;;;;;;;4.22;2.75;;;;;;;3.15;100.00;100087.69;6287331;28;20048;-85
2023/03/17 05:00:54;;;;;;;5.70;3.15;;;;;;;3.04;100.00;100085.72;6285647;28;20055;-85
2023/03/17 05:03:56;;;;;;;4.07;2.80;;;;;;;2.97;100.00;100077.56;6286205;28;20045;-85
2023/03/17 05:07:00;;;;;;;6.82;3.40;;;;;;;2.86;100.00;100079.03;6286137;28;20417;-85
2023/03/17 05:10:02;;;;;;;6.93;3.20;;;;;;;2.83;100.00;100079.22;6287108;28;20135;-85
2023/03/17 05:13:04;;;;;;;4.53;3.10;;;;;;;2.75;100.00;100084.75;6288028;28;20048;-85
2023/03/17 05:16:06;;;;;;;6.07;2.90;;;;;;;2.77;100.00;100078.63;6287276;28;20473;-85
2023/03/17 05:19:08;;;;;;;4.35;3.10;;;;;;;2.74;100.00;100078.81;6268103;28;20048;-85
2023/03/17 05:22:10;;;;;;;4.07;2.65;;;;;;;2.60;100.00;100086.38;6287606;28;20159;-85
2023/03/17 05:25:12;;;;;;;4.70;3.00;;;;;;;2.55;100.00;100088.34;6284282;28;20085;-85
2023/03/17 05:28:14;;;;;;;5.50;3.83;;;;;;;2.57;100.00;100084.00;6283651;28;20036;-85
2023/03/17 05:31:17;;;;;;;6.93;2.97;;;;;;;2.63;100.00;100072.63;6286642;28;20040;-85
2023/03/17 05:34:19;;;;;;;3.92;2.53;;;;;;;2.75;100.00;100062.56;6287106;28;20045;-85
2023/03/17 05:37:21;;;;;;;6.63;3.03;;;;;;;2.93;100.00;100062.47;6285873;28;20033;-85
2023/03/17 05:40:23;;;;;;;4.38;3.13;;;;;;;2.86;100.00;100072.22;6288100;28;20418;-85
2023/03/17 05:43:25;;;;;;;5.68;3.10;;;;;;;2.69;100.00;100060.34;6286486;28;20148;-85
2023/03/17 05:46:27;;;;;;;3.85;2.55;;;;;;;2.72;100.00;100060.19;6287134;28;20063;-85
2023/03/17 05:49:29;;;;;;;4.65;2.53;;;;;;;2.73;100.00;100055.88;6288874;28;20387;-85
2023/03/17 05:52:31;;;;;;;4.35;2.90;;;;;;;2.92;100.00;100058.28;6285093;28;20051;-85
2023/03/17 05:55:33;;;;;;;3.70;2.60;;;;;;;2.98;100.00;100056.22;6285385;28;20064;-85
2023/03/17 05:58:35;;;;;;;5.72;3.30;;;;;;;2.90;100.00;100043.00;6285586;28;20032;-85
2023/03/17 06:01:37;;;;;;;4.65;3.13;;;;;;;2.92;100.00;100036.09;6284231;28;20186;-85
2023/03/17 06:04:39;;;;;;;4.88;2.80;;;;;;;2.98;100.00;100053.66;6284803;28;20197;-85
2023/03/17 06:07:41;;;;;;;4.50;2.90;;;;;;;3.10;100.00;100049.56;6286703;28;20450;-85
2023/03/17 06:10:55;;;;;;;4.88;3.42;;;;;;;3.10;100.00;100049.56;6287776;28;20044;-85
2023/03/17 06:13:57;;;;;;;4.57;2.60;;;;;;;2.92;100.00;100058.28;6285241;28;20044;-85
2023/03/17 06:16:59;;;;;;;4.95;2.92;;;;;;;2.76;100.00;100059.13;6286003;28;20032;-85
2023/03/17 06:20:01;;;;;;;5.28;3.20;;;;;;;2.68;100.00;100068.91;6285272;28;20056;-85
2023/03/17 06:23:03;;;;;;;3.65;2.80;;;;;;;2.66;100.00;100080.13;6282449;28;20391;-85
2023/03/17 06:26:07;;;;;;;3.90;2.70;;;;;;;2.76;100.00;100069.34;6296135;28;20399;-85
2023/03/17 06:29:10;;;;;;;5.97;3.00;;;;;;;2.85;100.00;100070.56;6281313;28;20044;-85
2023/03/17 06:32:12;;;;;;;5.80;2.88;;;;;;;2.87;100.00;100058.53;6284499;28;20040;-85
2023/03/17 06:35:22;;;;;;;5.65;3.30;;;;;;;2.97;100.00;100061.41;6269240;28;20056;-85
2023/03/17 06:38:24;;;;;;;5.93;2.83;;;;;;;3.07;100.00;100057.44;6291177;28;20033;-85
2023/03/17 06:41:26;;;;;;;7.55;3.25;;;;;;;3.16;100.00;100056.94;6282901;28;20097;-85
2023/03/17 06:44:28;;;;;;;5.72;3.10;;;;;;;3.16;100.00;100066.34;6286308;28;20045;-85
2023/03/17 06:47:30;;;;;;;3.80;2.83;;;;;;;3.29;100.00;100071.59;6285032;28;20446;-85
2023/03/17 06:50:31;;;;;;;6.18;3.05;;;;;;;3.31;100.00;100080.00;6281890;28;20076;-85
2023/03/17 06:53:33;;;;;;;6.40;2.92;;;;;;;3.37;100.00;100077.91;6284397;28;20514;-85
2023/03/17 06:56:35;;;;;;;5.43;3.35;;;;;;;3.39;100.00;100080.38;6283520;28;20753;-85
2023/03/17 06:59:37;;;;;;;4.07;2.45;;;;;;;3.40;100.00;100076.91;6283173;28;20044;-85
2023/03/17 07:02:41;;;;;;;4.07;2.80;;;;;;;3.41;100.00;100068.34;6293478;28;20056;-85
2023/03/17 07:05:42;;;;;;;4.45;3.00;;;;;;;3.45;100.00;100069.78;6298027;28;20043;-85
2023/03/17 07:08:45;;;;;;;4.47;2.65;;;;;;;3.60;100.00;100060.41;6291863;28;20063;-85
2023/03/17 07:11:47;;;;;;;3.83;2.67;;;;;;;3.58;100.00;100063.09;6284089;28;20393;-85
2023/03/17 07:14:49;;;;;;;6.05;3.22;;;;;;;3.61;100.00;100064.66;6298021;28;20660;-85
2023/03/17 07:17:50;;;;;;;3.38;2.53;;;;;;;3.69;100.00;100066.75;6302101;28;20041;-85
2023/03/17 07:20:52;;;;;;;5.63;3.15;;;;;;;3.72;100.00;100062.28;6303009;28;20521;-85
2023/03/17 07:23:54;;;;;;;5.15;2.97;;;;;;;3.80;100.00;100051.59;6307468;28;20078;-85
2023/03/17 07:26:56;;;;;;;4.43;2.70;;;;;;;3.82;100.00;100052.31;6285931;28;20044;-85
2023/03/17 07:30:01;;;;;;;5.82;3.15;;;;;;;3.95;100.00;100052.41;6284532;28;20053;-85
2023/03/17 07:33:03;;;;;;;6.50;3.08;;;;;;;4.07;100.00;100052.53;6273613;28;20135;-85
2023/03/17 07:36:06;;;;;;;4.75;2.70;;;;;;;4.22;100.00;100047.41;6285958;28;20075;-85
2023/03/17 07:39:07;;;;;;;4.43;2.65;;;;;;;4.27;100.00;100050.50;6284636;28;20048;-85
2023/03/17 07:42:14;;;;;;;5.53;2.78;;;;;;;4.34;100.00;100043.28;6284217;28;20660;-85
2023/03/17 07:45:16;;;;;;;5.22;2.63;;;;;;;4.50;100.00;100047.38;6276588;28;20044;-85
2023/03/17 07:48:18;;;;;;;4.22;2.72;;;;;;;4.69;100.00;100047.03;6284239;28;20044;-85
2023/03/17 07:51:21;;;;;;;4.45;2.83;;;;;;;4.94;100.00;100048.91;6284715;28;20051;-86
2023/03/17 07:54:25;;;;;;;4.15;2.65;;;;;;;5.23;100.00;100058.22;6288790;28;20051;-85
2023/03/17 07:57:27;;;;;;;4.10;2.80;;;;;;;5.46;100.00;100038.78;6285847;28;20036;-85
2023/03/17 08:00:29;;;;;;;4.45;2.80;;;;;;;5.64;100.00;100026.47;6293048;28;20050;-85
2023/03/17 08:03:32;;;;;;;5.78;2.63;;;;;;;5.81;100.00;100033.84;6286453;28;20065;-85
2023/03/17 08:06:34;;;;;;;4.72;2.83;;;;;;;5.94;100.00;100018.50;6287651;28;20041;-85
2023/03/17 08:09:36;;;;;;;3.30;2.35;;;;;;;6.04;100.00;100012.63;6293118;28;20048;-85
2023/03/17 08:12:39;;;;;;;3.65;2.38;;;;;;;6.14;100.00;100010.25;6289574;28;20060;-85
2023/03/17 08:15:41;;;;;;;4.35;2.28;;;;;;;6.33;100.00;100014.09;6283617;28;20052;-85
2023/03/17 08:18:42;;;;;;;4.00;2.47;;;;;;;6.55;100.00;100024.53;6283993;28;20293;-84
2023/03/17 08:21:44;;;;;;;3.90;2.63;;;;;;;6.73;100.00;100024.16;6288482;28;20056;-84
2023/03/17 08:24:46;;;;;;;3.28;2.28;;;;;;;6.89;100.00;100022.16;6288628;28;20171;-84
2023/03/17 08:27:48;;;;;;;3.25;2.50;;;;;;;6.93;100.00;100020.16;6282520;28;20063;-85
2023/03/17 08:30:51;;;;;;;4.00;2.35;;;;;;;7.00;100.00;100024.75;6290915;28;20400;-85
2023/03/17 08:33:55;;;;;;;3.58;2.30;;;;;;;7.10;100.00;100023.19;6288181;28;20048;-85
2023/03/17 08:37:01;;;;;;;3.10;2.42;;;;;;;7.22;100.00;100026.59;6288350;28;20041;-85
2023/03/17 08:40:04;;;;;;;3.55;2.40;;;;;;;7.41;100.00;100023.50;6290997;28;20150;-85
2023/03/17 08:43:06;;;;;;;4.72;2.38;;;;;;;7.61;100.00;100031.50;6288101;28;20076;-85
2023/03/17 08:46:19;;;;;;;4.18;2.30;;;;;;;7.85;100.00;100029.69;6287268;28;20117;-85
2023/03/17 08:49:21;;;;;;;5.63;2.40;;;;;;;8.02;100.00;100022.41;6289455;28;20514;-85
2023/03/17 08:52:23;;;;;;;4.50;2.22;;;;;;;8.14;100.00;100017.13;6287212;28;20628;-85
2023/03/17 08:55:26;;;;;;;5.28;2.05;;;;;;;8.27;100.00;100008.44;6300256;28;20592;-85
2023/03/17 08:58:28;;;;;;;3.13;2.05;;;;;;;8.45;100.00;100006.22;6286690;28;20047;-85
2023/03/17 09:01:31;;;;;;;2.80;2.28;;;;;;;8.64;100.00;100006.41;6287176;28;20048;-85
2023/03/17 09:04:33;;;;;;;3.42;2.00;;;;;;;8.70;100.00;100000.78;6300634;28;20037;-85
2023/03/17 09:07:36;;;;;;;4.63;2.30;;;;;;;8.68;100.00;100001.84;6288860;28;20415;-85
2023/03/17 09:10:38;;;;;;;3.90;1.95;;;;;;;8.68;100.00;100000.06;6287271;28;20055;-85
2023/03/17 09:13:40;;;;;;;3.78;1.75;;;;;;;8.72;100.00;100000.63;6300380;28;20076;-85
2023/03/17 09:16:42;;;;;;;3.40;2.10;;;;;;;8.84;100.00;100003.06;6302142;28;20051;-85
2023/03/17 09:19:43;;;;;;;2.80;2.20;;;;;;;8.89;100.00;99986.38;6293769;28;20033;-85
2023/03/17 09:22:47;;;;;;;4.90;2.90;;;;;;;8.95;100.00;99988.50;6291749;28;20442;-85
2023/03/17 09:25:50;;;;;;;2.78;2.17;;;;;;;9.11;100.00;99988.88;6297171;28;20398;-85
2023/03/17 09:28:52;;;;;;;3.38;1.90;;;;;;;9.17;100.00;99990.16;6287237;28;20506;-86
2023/03/17 09:31:55;;;;;;;3.50;2.15;;;;;;;9.27;100.00;99991.84;6287395;28;20048;-85
2023/03/17 09:34:57;;;;;;;2.25;1.70;;;;;;;9.34;100.00;99981.00;6287916;28;20040;-85
2023/03/17 09:38:00;;;;;;;5.10;2.10;;;;;;;9.48;100.00;99996.19;6281584;28;20075;-86
2023/03/17 09:41:20;;;;;;;2.58;1.77;;;;;;;9.50;100.00;100007.22;6278033;28;20037;-86
2023/03/17 09:44:39;;;;;;;2.53;1.93;;;;;;;9.59;100.00;100011.63;6281310;28;20115;-86
2023/03/17 09:48:15;;;;;;;2.47;1.65;;;;;;;9.70;100.00;100018.47;6290147;28;20040;-86
2023/03/17 09:51:18;;;;;;;2.80;2.00;;;;;;;9.77;100.00;100011.03;6289474;28;20049;-85
2023/03/17 09:54:36;;;;;;;3.90;2.05;;;;;;;9.80;100.00;100016.75;6296095;28;20048;-86
2023/03/17 09:57:39;;;;;;;3.38;2.00;;;;;;;9.82;100.00;100026.97;6281697;28;20540;-86
2023/03/17 10:00:41;;;;;;;9.55;2.13;;;;;;;9.81;100.00;100038.25;6287380;28;20044;-86
2023/03/17 10:03:43;;;;;;;3.42;1.85;;;;;;;9.80;100.00;100032.25;6286103;28;20501;-85
2023/03/17 10:06:46;;;;;;;4.40;1.83;;;;;;;9.75;100.00;100038.75;6287597;28;20048;-85
2023/03/17 10:10:15;;;;;;;4.43;1.90;;;;;;;9.83;100.00;100036.34;6290219;28;20040;-85
2023/03/17 10:13:56;;;;;;;2.65;1.80;;;;;;;10.02;100.00;100028.69;6290287;28;20055;-86
2023/03/17 10:17:17;;;;;;;4.15;1.90;;;;;;;10.13;100.00;100025.19;6286733;28;20097;-86
2023/03/17 10:20:32;;;;;;;2.58;1.70;;;;;;;10.17;100.00;100029.16;6295651;28;20044;-86
2023/03/17 10:23:36;;;;;;;2.15;1.67;;;;;;;10.35;100.00;100024.19;6304659;28;20040;-86
2023/03/17 10:26:44;;;;;;;2.88;2.10;;;;;;;10.50;100.00;100022.06;6288787;28;20047;-86
2023/03/17 10:29:46;;;;;;;2.88;1.88;;;;;;;10.61;100.00;100024.53;6258202;28;20509;-86
2023/03/17 10:32:51;;;;;;;3.60;2.22;;;;;;;10.77;100.00;100022.22;6275262;28;20622;-86
2023/03/17 10:35:53;;;;;;;4.28;1.92;;;;;;;10.94;100.00;100022.53;6282881;28;20038;-86
2023/03/17 10:38:55;;;;;;;4.28;2.00;;;;;;;11.09;100.00;100015.97;6284456;28;20083;-86
2023/03/17 10:42:06;;;;;;;3.70;2.42;;;;;;;11.26;100.00;100004.09;6285746;28;20429;-86
2023/03/17 10:45:30;;;;;;;4.00;2.05;;;;;;;11.45;100.00;99995.47;6283086;28;20056;-86
2023/03/17 10:48:37;;;;;;;2.75;1.77;;;;;;;11.53;100.00;100005.97;6284096;28;20137;-86
2023/03/17 10:51:39;;;;;;;2.58;1.95;;;;;;;11.56;100.00;100004.88;6290676;28;20052;-86
2023/03/17 10:54:47;;;;;;;3.63;2.08;;;;;;;11.58;100.00;100011.56;6289326;28;20032;-86
2023/03/17 10:58:02;;;;;;;2.35;1.80;;;;;;;11.62;100.00;100012.06;6283526;28;20044;-86
2023/03/17 11:01:18;;;;;;;2.03;1.63;;;;;;;11.94;100.00;100016.91;6294027;28;20044;-86
2023/03/17 11:04:34;;;;;;;2.28;1.88;;;;;;;12.17;100.00;100022.53;6295245;28;20703;-86
2023/03/17 11:07:39;;;;;;;2.25;1.63;;;;;;;12.29;100.00;100021.38;6282978;28;20548;-86
2023/03/17 11:10:41;;;;;;;4.68;1.85;;;;;;;12.38;100.00;100017.13;6282959;28;20059;-86
2023/03/17 11:13:42;;;;;;;6.25;1.90;;;;;;;12.42;100.00;100002.91;6282742;28;20067;-86
2023/03/17 11:17:01;;;;;;;3.03;1.92;;;;;;;12.47;100.00;99995.50;6287705;28;20133;-86
2023/03/17 11:20:06;;;;;;;2.78;1.80;;;;;;;12.75;100.00;99979.84;6284379;28;20116;-86
2023/03/17 11:23:27;;;;;;;2.72;1.90;;;;;;;12.95;100.00;99985.69;6287276;28;20509;-86
2023/03/17 11:27:15;;;;;;;2.17;1.70;;;;;;;13.12;100.00;99979.66;6288102;28;20040;-86
2023/03/17 11:31:14;;;;;;;2.35;1.58;;;;;;;13.28;100.00;99975.59;6227729;28;20050;-87
2023/03/17 11:34:30;;;;;;;3.33;1.35;;;;;;;13.34;100.00;99973.19;6160493;28;20169;-87
2023/03/17 11:37:40;;;;;;;3.28;2.00;;;;;;;13.47;100.00;99980.59;6220552;28;20100;-86
2023/03/17 11:40:53;;;;;;;2.15;1.55;;;;;;;13.47;100.00;99964.19;6214379;28;20219;-87
2023/03/17 11:44:25;;;;;;;3.08;1.88;;;;;;;13.61;100.00;99955.78;6229119;28;20080;-87
2023/03/17 11:47:43;;;;;;;6.93;1.65;;;;;;;13.89;100.00;99955.59;6220567;28;20056;-87
2023/03/17 11:51:03;;;;;;;1.80;1.50;;;;;;;14.18;100.00;99945.59;6212174;28;20586;-87
2023/03/17 11:54:18;;;;;;;2.60;1.63;;;;;;;14.34;100.00;99951.84;6238649;28;20045;-87
2023/03/17 11:57:27;;;;;;;3.85;1.58;;;;;;;14.40;100.00;99959.78;6232734;28;20061;-87
2023/03/17 12:00:32;;;;;;;3.25;1.55;;;;;;;14.41;100.00;99951.03;6230394;28;20076;-87
2023/03/17 12:03:42;;;;;;;1.88;1.65;;;;;;;14.51;100.00;99950.03;6227388;28;20057;-87
2023/03/17 12:07:00;;;;;;;3.20;1.67;;;;;;;14.46;100.00;99944.50;6277707;28;20328;-87
2023/03/17 12:10:28;;;;;;;2.15;1.95;;;;;;;14.38;100.00;99942.72;6276258;28;20049;-88
2023/03/17 12:13:53;;;;;;;4.30;1.67;;;;;;;14.39;100.00;99952.97;6277799;28;20457;-88
2023/03/17 12:17:33;;;;;;;2.55;1.42;;;;;;;14.48;100.00;99943.38;6281401;28;20037;-87
2023/03/17 12:20:56;;;;;;;3.22;1.52;;;;;;;14.56;100.00;99940.03;6227321;28;20186;-88
2023/03/17 12:24:19;;;;;;;2.47;1.88;;;;;;;14.81;100.00;99949.47;6242032;28;20056;-88
2023/03/17 12:27:43;;;;;;;2.25;1.60;;;;;;;14.96;100.00;99938.41;6230294;28;20391;-87
2023/03/17 12:30:53;;;;;;;2.42;1.45;;;;;;;15.13;100.00;99934.78;6230151;28;20132;-88
2023/03/17 12:34:04;;;;;;;3.30;1.45;;;;;;;15.23;100.00;99939.84;6223603;28;20218;-88
2023/03/17 12:37:06;;;;;;;;;;;;;;;15.26;100.00;99936.88;6242030;28;20375;-88
2023/03/17 12:40:16;;;;;;;2.80;1.65;;;;;;;15.32;100.00;99935.41;6242407;28;19925;-88
2023/03/17 12:43:56;;;;;;;4.15;1.70;;;;;;;15.45;100.00;99935.69;6235855;28;20053;-88
2023/03/17 12:47:42;;;;;;;6.70;2.92;;;;;;;15.66;100.00;99925.50;6156753;28;20143;-88
2023/03/17 12:51:06;;;;;;;3.35;1.48;;;;;;;15.90;100.00;99922.03;6055487;29;20562;-87
2023/03/17 12:54:25;;;;;;;2.60;1.25;;;;;;;16.02;100.00;99930.25;6057070;29;20056;-87
2023/03/17 12:57:39;;;;;;;4.68;1.67;;;;;;;16.12;100.00;99930.06;6082536;29;20458;-87
2023/03/17 13:00:56;;;;;;;3.53;1.67;;;;;;;16.17;100.00;99932.16;6108487;29;20062;-87
2023/03/17 13:04:22;;;;;;;2.55;1.42;;;;;;;16.21;100.00;99934.25;6108036;29;20621;-88
2023/03/17 13:07:50;;;;;;;3.15;1.52;;;;;;;16.25;100.00;99925.09;6113969;29;20410;-88
2023/03/17 13:11:25;;;;;;;2.15;1.60;;;;;;;16.37;100.00;99922.88;6114212;29;20106;-87
2023/03/17 13:14:46;;;;;;;3.17;1.73;;;;;;;16.48;100.00;99917.25;6114239;29;20442;-88
2023/03/17 13:17:49;;;;;;;1.65;1.35;;;;;;;16.54;100.00;99916.53;6112293;29;20352;-88
2023/03/17 13:21:10;;;;;;;1.52;1.23;;;;;;;16.61;97.79;99914.06;6114932;29;20066;-87
2023/03/17 13:24:14;;;;;;;2.65;1.40;;;;;;;16.55;100.00;99912.16;6165505;28;20097;-87
2023/03/17 13:27:31;;;;;;;2.75;1.42;;;;;;;16.53;100.00;99914.94;6272581;28;20124;-88
2023/03/17 13:30:33;;;;;;;2.30;1.40;;;;;;;16.67;100.00;99915.16;6287431;28;20106;-88
2023/03/17 13:33:42;;;;;;;1.85;1.42;;;;;;;16.73;99.02;99917.88;6284991;28;20131;-88
2023/03/17 13:37:12;;;;;;;3.05;1.65;;;;;;;16.65;100.00;99914.53;6287950;28;20079;-88
2023/03/17 13:40:50;;;;;;;2.88;1.50;;;;;;;16.51;99.48;99909.06;6289003;28;20040;-88
2023/03/17 13:44:23;;;;;;;3.60;1.60;;;;;;;16.40;97.10;99906.88;6295463;28;20057;-88
2023/03/17 13:47:42;;;;;;;1.70;1.23;;;;;;;16.38;100.00;99908.84;6288572;28;20040;-87
2023/03/17 13:50:45;;;;;;;1.92;1.40;;;;;;;16.35;100.00;99896.16;6288749;28;20116;-87
2023/03/17 13:53:55;;;;;;;2.40;1.20;;;;;;;16.33;99.39;99895.50;6285676;28;20043;-87
2023/03/17 13:57:18;;;;;;;1.73;1.30;;;;;;;16.38;100.00;99890.56;6289376;28;20063;-87
2023/03/17 14:00:32;;;;;;;2.47;1.13;;;;;;;16.44;100.00;99892.47;6287453;28;20051;-87
2023/03/17 14:03:39;;;;;;;2.88;1.45;;;;;;;16.38;100.00;99887.94;6287706;28;20119;-87
2023/03/17 14:06:41;;;;;;;3.42;1.50;;;;;;;16.30;100.00;99886.22;6285012;28;20051;-87
2023/03/17 14:09:44;;;;;;;2.85;1.50;;;;;;;16.22;100.00;99869.78;6283219;28;20052;-87
2023/03/17 14:13:20;;;;;;;4.10;1.98;;;;;;;16.12;100.00;99873.44;6286216;28;20553;-87
2023/03/17 14:16:27;;;;;;;2.42;1.52;;;;;;;16.06;100.00;99871.50;6283652;28;20135;-87
2023/03/17 14:19:29;;;;;;;2.00;1.20;;;;;;;16.05;100.00;99877.72;6290603;28;20036;-87
2023/03/17 14:22:32;;;;;;;3.05;1.58;;;;;;;16.06;100.00;99883.75;6285743;28;20459;-87
2023/03/17 14:25:36;;;;;;;2.85;1.38;;;;;;;15.97;100.00;99877.75;6295532;28;20516;-87
2023/03/17 14:28:39;;;;;;;2.78;1.50;;;;;;;16.01;100.00;99871.22;6288254;28;20286;-87